sensor_id;sensor_type;location;lat;lon;timestamp;P1;durP1;ratioP1;P2;durP2;ratioP2
8592;SDS011;4334;49.982;8.398;2023-02-11T00:00:43;52.70;;;29.03;;
8592;SDS011;4334;49.982;8.398;2023-02-11T00:03:10;56.90;;;28.53;;
8592;SDS011;4334;49.982;8.398;2023-02-11T00:05:37;51.43;;;27.70;;
8592;SDS011;4334;49.982;8.398;2023-02-11T00:08:05;56.40;;;28.20;;
8592;SDS011;4334;49.982;8.398;2023-02-11T00:10:31;57.47;;;28.47;;
8592;SDS011;4334;49.982;8.398;2023-02-11T00:12:58;53.00;;;27.27;;
8592;SDS011;4334;49.982;8.398;2023-02-11T00:15:25;52.40;;;28.07;;
8592;SDS011;4334;49.982;8.398;2023-02-11T00:17:52;53.33;;;28.60;;
8592;SDS011;4334;49.982;8.398;2023-02-11T00:20:19;51.27;;;28.30;;
8592;SDS011;4334;49.982;8.398;2023-02-11T00:22:46;55.60;;;29.30;;
8592;SDS011;4334;49.982;8.398;2023-02-11T00:25:14;54.20;;;28.10;;
8592;SDS011;4334;49.982;8.398;2023-02-11T00:27:41;57.40;;;29.10;;
8592;SDS011;4334;49.982;8.398;2023-02-11T00:30:09;56.57;;;28.43;;
8592;SDS011;4334;49.982;8.398;2023-02-11T00:32:36;55.97;;;28.93;;
8592;SDS011;4334;49.982;8.398;2023-02-11T00:35:03;53.47;;;28.67;;
8592;SDS011;4334;49.982;8.398;2023-02-11T00:37:30;54.43;;;29.60;;
8592;SDS011;4334;49.982;8.398;2023-02-11T00:40:00;56.77;;;28.67;;
8592;SDS011;4334;49.982;8.398;2023-02-11T00:42:28;58.83;;;29.87;;
8592;SDS011;4334;49.982;8.398;2023-02-11T00:44:55;55.57;;;28.90;;
8592;SDS011;4334;49.982;8.398;2023-02-11T00:47:22;57.97;;;29.17;;
8592;SDS011;4334;49.982;8.398;2023-02-11T00:49:49;55.67;;;27.67;;
8592;SDS011;4334;49.982;8.398;2023-02-11T00:52:15;50.50;;;28.03;;
8592;SDS011;4334;49.982;8.398;2023-02-11T00:54:42;54.97;;;28.63;;
8592;SDS011;4334;49.982;8.398;2023-02-11T00:57:09;54.97;;;28.97;;
8592;SDS011;4334;49.982;8.398;2023-02-11T00:59:37;57.63;;;28.40;;
8592;SDS011;4334;49.982;8.398;2023-02-11T01:02:04;53.67;;;28.87;;
8592;SDS011;4334;49.982;8.398;2023-02-11T01:04:31;52.87;;;28.53;;
8592;SDS011;4334;49.982;8.398;2023-02-11T01:06:58;53.10;;;28.37;;
8592;SDS011;4334;49.982;8.398;2023-02-11T01:09:24;54.67;;;29.37;;
8592;SDS011;4334;49.982;8.398;2023-02-11T01:11:51;52.90;;;28.23;;
8592;SDS011;4334;49.982;8.398;2023-02-11T01:14:18;56.90;;;29.80;;
8592;SDS011;4334;49.982;8.398;2023-02-11T01:16:46;55.70;;;29.57;;
8592;SDS011;4334;49.982;8.398;2023-02-11T01:19:13;52.97;;;29.03;;
8592;SDS011;4334;49.982;8.398;2023-02-11T01:21:39;58.77;;;29.80;;
8592;SDS011;4334;49.982;8.398;2023-02-11T01:24:06;59.87;;;29.57;;
8592;SDS011;4334;49.982;8.398;2023-02-11T01:26:33;55.83;;;29.07;;
8592;SDS011;4334;49.982;8.398;2023-02-11T01:29:00;50.70;;;29.90;;
8592;SDS011;4334;49.982;8.398;2023-02-11T01:31:26;57.10;;;29.13;;
8592;SDS011;4334;49.982;8.398;2023-02-11T01:33:56;52.70;;;27.63;;
8592;SDS011;4334;49.982;8.398;2023-02-11T01:36:23;54.33;;;29.23;;
8592;SDS011;4334;49.982;8.398;2023-02-11T01:38:49;52.57;;;28.40;;
8592;SDS011;4334;49.982;8.398;2023-02-11T01:41:17;52.77;;;28.70;;
8592;SDS011;4334;49.982;8.398;2023-02-11T01:43:44;60.83;;;29.23;;
8592;SDS011;4334;49.982;8.398;2023-02-11T01:46:29;53.77;;;28.77;;
8592;SDS011;4334;49.982;8.398;2023-02-11T01:49:00;59.10;;;29.40;;
8592;SDS011;4334;49.982;8.398;2023-02-11T01:51:31;52.77;;;28.70;;
8592;SDS011;4334;49.982;8.398;2023-02-11T01:54:03;53.90;;;28.77;;
8592;SDS011;4334;49.982;8.398;2023-02-11T01:56:50;55.30;;;29.20;;
8592;SDS011;4334;49.982;8.398;2023-02-11T01:59:38;57.93;;;29.60;;
8592;SDS011;4334;49.982;8.398;2023-02-11T02:02:10;54.47;;;28.77;;
8592;SDS011;4334;49.982;8.398;2023-02-11T02:04:43;54.27;;;28.70;;
8592;SDS011;4334;49.982;8.398;2023-02-11T02:07:16;54.70;;;28.30;;
8592;SDS011;4334;49.982;8.398;2023-02-11T02:09:51;51.50;;;27.83;;
8592;SDS011;4334;49.982;8.398;2023-02-11T02:12:23;56.00;;;29.57;;
8592;SDS011;4334;49.982;8.398;2023-02-11T02:14:50;53.93;;;28.20;;
8592;SDS011;4334;49.982;8.398;2023-02-11T02:17:21;51.70;;;28.10;;
8592;SDS011;4334;49.982;8.398;2023-02-11T02:26:18;51.53;;;27.60;;
8592;SDS011;4334;49.982;8.398;2023-02-11T02:32:22;58.90;;;28.03;;
8592;SDS011;4334;49.982;8.398;2023-02-11T02:35:01;52.57;;;26.90;;
8592;SDS011;4334;49.982;8.398;2023-02-11T02:37:37;50.20;;;27.40;;
8592;SDS011;4334;49.982;8.398;2023-02-11T02:40:13;53.13;;;28.63;;
8592;SDS011;4334;49.982;8.398;2023-02-11T02:42:45;59.60;;;27.97;;
8592;SDS011;4334;49.982;8.398;2023-02-11T02:45:12;56.47;;;28.30;;
8592;SDS011;4334;49.982;8.398;2023-02-11T02:47:41;51.80;;;27.40;;
8592;SDS011;4334;49.982;8.398;2023-02-11T02:50:08;50.43;;;27.80;;
8592;SDS011;4334;49.982;8.398;2023-02-11T02:52:39;52.50;;;28.23;;
8592;SDS011;4334;49.982;8.398;2023-02-11T02:55:23;51.77;;;27.23;;
8592;SDS011;4334;49.982;8.398;2023-02-11T02:58:12;54.23;;;28.77;;
8592;SDS011;4334;49.982;8.398;2023-02-11T03:00:57;53.03;;;27.90;;
8592;SDS011;4334;49.982;8.398;2023-02-11T03:03:33;52.33;;;28.20;;
8592;SDS011;4334;49.982;8.398;2023-02-11T03:06:07;56.50;;;28.20;;
8592;SDS011;4334;49.982;8.398;2023-02-11T03:08:39;56.87;;;28.97;;
8592;SDS011;4334;49.982;8.398;2023-02-11T03:11:09;51.70;;;26.83;;
8592;SDS011;4334;49.982;8.398;2023-02-11T03:13:38;55.87;;;27.47;;
8592;SDS011;4334;49.982;8.398;2023-02-11T03:16:07;51.33;;;28.17;;
8592;SDS011;4334;49.982;8.398;2023-02-11T03:18:40;58.83;;;29.20;;
8592;SDS011;4334;49.982;8.398;2023-02-11T03:21:10;54.00;;;27.87;;
8592;SDS011;4334;49.982;8.398;2023-02-11T03:23:40;52.07;;;27.93;;
8592;SDS011;4334;49.982;8.398;2023-02-11T03:26:13;56.40;;;27.53;;
8592;SDS011;4334;49.982;8.398;2023-02-11T03:28:44;54.23;;;27.27;;
8592;SDS011;4334;49.982;8.398;2023-02-11T03:31:17;52.50;;;26.93;;
8592;SDS011;4334;49.982;8.398;2023-02-11T03:33:54;51.70;;;26.10;;
8592;SDS011;4334;49.982;8.398;2023-02-11T03:36:27;54.83;;;28.00;;
8592;SDS011;4334;49.982;8.398;2023-02-11T03:39:01;51.03;;;27.33;;
8592;SDS011;4334;49.982;8.398;2023-02-11T03:41:30;57.83;;;28.00;;
8592;SDS011;4334;49.982;8.398;2023-02-11T03:43:58;50.60;;;27.00;;
8592;SDS011;4334;49.982;8.398;2023-02-11T03:46:27;59.53;;;27.37;;
8592;SDS011;4334;49.982;8.398;2023-02-11T03:49:00;51.67;;;27.10;;
8592;SDS011;4334;49.982;8.398;2023-02-11T03:51:29;48.20;;;25.70;;
8592;SDS011;4334;49.982;8.398;2023-02-11T03:53:59;50.63;;;27.00;;
8592;SDS011;4334;49.982;8.398;2023-02-11T03:56:29;45.07;;;24.33;;
8592;SDS011;4334;49.982;8.398;2023-02-11T03:59:00;47.27;;;25.23;;
8592;SDS011;4334;49.982;8.398;2023-02-11T04:01:27;48.40;;;25.27;;
8592;SDS011;4334;49.982;8.398;2023-02-11T04:03:54;49.77;;;25.50;;
8592;SDS011;4334;49.982;8.398;2023-02-11T04:06:22;50.93;;;25.77;;
8592;SDS011;4334;49.982;8.398;2023-02-11T04:08:49;52.37;;;25.07;;
8592;SDS011;4334;49.982;8.398;2023-02-11T04:11:15;45.97;;;25.10;;
8592;SDS011;4334;49.982;8.398;2023-02-11T04:13:42;48.73;;;24.63;;
8592;SDS011;4334;49.982;8.398;2023-02-11T04:16:09;47.93;;;25.13;;
8592;SDS011;4334;49.982;8.398;2023-02-11T04:18:36;45.93;;;24.27;;
8592;SDS011;4334;49.982;8.398;2023-02-11T04:21:03;47.93;;;25.27;;
8592;SDS011;4334;49.982;8.398;2023-02-11T04:23:31;45.53;;;25.37;;
8592;SDS011;4334;49.982;8.398;2023-02-11T04:25:58;50.57;;;25.70;;
8592;SDS011;4334;49.982;8.398;2023-02-11T04:28:25;47.07;;;25.80;;
8592;SDS011;4334;49.982;8.398;2023-02-11T04:30:53;45.70;;;25.00;;
8592;SDS011;4334;49.982;8.398;2023-02-11T04:33:20;49.90;;;26.47;;
8592;SDS011;4334;49.982;8.398;2023-02-11T04:35:48;48.50;;;24.47;;
8592;SDS011;4334;49.982;8.398;2023-02-11T04:38:15;50.17;;;25.93;;
8592;SDS011;4334;49.982;8.398;2023-02-11T04:40:43;48.90;;;24.17;;
8592;SDS011;4334;49.982;8.398;2023-02-11T04:43:10;49.13;;;26.53;;
8592;SDS011;4334;49.982;8.398;2023-02-11T04:45:37;45.47;;;24.13;;
8592;SDS011;4334;49.982;8.398;2023-02-11T04:48:04;50.17;;;26.13;;
8592;SDS011;4334;49.982;8.398;2023-02-11T04:50:31;51.77;;;25.60;;
8592;SDS011;4334;49.982;8.398;2023-02-11T04:52:57;50.50;;;24.20;;
8592;SDS011;4334;49.982;8.398;2023-02-11T04:55:24;47.90;;;25.30;;
8592;SDS011;4334;49.982;8.398;2023-02-11T04:57:53;47.73;;;25.17;;
8592;SDS011;4334;49.982;8.398;2023-02-11T05:00:19;47.73;;;25.30;;
8592;SDS011;4334;49.982;8.398;2023-02-11T05:02:47;45.83;;;24.63;;
8592;SDS011;4334;49.982;8.398;2023-02-11T05:05:13;45.33;;;23.40;;
8592;SDS011;4334;49.982;8.398;2023-02-11T05:07:40;48.87;;;25.60;;
8592;SDS011;4334;49.982;8.398;2023-02-11T05:10:07;45.13;;;24.57;;
8592;SDS011;4334;49.982;8.398;2023-02-11T05:12:34;46.57;;;24.00;;
8592;SDS011;4334;49.982;8.398;2023-02-11T05:15:02;45.00;;;24.57;;
8592;SDS011;4334;49.982;8.398;2023-02-11T05:17:29;47.83;;;24.10;;
8592;SDS011;4334;49.982;8.398;2023-02-11T05:19:56;46.43;;;24.80;;
8592;SDS011;4334;49.982;8.398;2023-02-11T05:22:23;51.53;;;24.73;;
8592;SDS011;4334;49.982;8.398;2023-02-11T05:24:50;51.67;;;25.23;;
8592;SDS011;4334;49.982;8.398;2023-02-11T05:27:16;46.43;;;24.67;;
8592;SDS011;4334;49.982;8.398;2023-02-11T05:29:43;45.83;;;24.67;;
8592;SDS011;4334;49.982;8.398;2023-02-11T05:32:11;50.47;;;25.73;;
8592;SDS011;4334;49.982;8.398;2023-02-11T05:34:38;45.70;;;25.67;;
8592;SDS011;4334;49.982;8.398;2023-02-11T05:37:04;47.57;;;24.20;;
8592;SDS011;4334;49.982;8.398;2023-02-11T05:39:32;46.53;;;24.80;;
8592;SDS011;4334;49.982;8.398;2023-02-11T05:41:58;49.97;;;25.77;;
8592;SDS011;4334;49.982;8.398;2023-02-11T05:44:25;47.73;;;26.00;;
8592;SDS011;4334;49.982;8.398;2023-02-11T05:46:52;48.00;;;24.47;;
8592;SDS011;4334;49.982;8.398;2023-02-11T05:49:20;49.80;;;25.50;;
8592;SDS011;4334;49.982;8.398;2023-02-11T05:51:47;49.47;;;24.87;;
8592;SDS011;4334;49.982;8.398;2023-02-11T05:54:14;45.97;;;23.33;;
8592;SDS011;4334;49.982;8.398;2023-02-11T05:56:42;48.30;;;24.07;;
8592;SDS011;4334;49.982;8.398;2023-02-11T05:59:08;49.03;;;25.50;;
8592;SDS011;4334;49.982;8.398;2023-02-11T06:01:38;48.60;;;24.13;;
8592;SDS011;4334;49.982;8.398;2023-02-11T06:04:05;43.53;;;23.80;;
8592;SDS011;4334;49.982;8.398;2023-02-11T06:09:01;42.87;;;22.70;;
8592;SDS011;4334;49.982;8.398;2023-02-11T06:11:28;44.00;;;23.63;;
8592;SDS011;4334;49.982;8.398;2023-02-11T06:13:55;46.83;;;24.23;;
8592;SDS011;4334;49.982;8.398;2023-02-11T06:16:22;41.90;;;22.27;;
8592;SDS011;4334;49.982;8.398;2023-02-11T06:18:48;48.23;;;23.60;;
8592;SDS011;4334;49.982;8.398;2023-02-11T06:21:15;45.37;;;23.77;;
8592;SDS011;4334;49.982;8.398;2023-02-11T06:23:43;44.93;;;24.63;;
8592;SDS011;4334;49.982;8.398;2023-02-11T06:26:14;45.33;;;23.57;;
8592;SDS011;4334;49.982;8.398;2023-02-11T06:28:43;44.40;;;23.87;;
8592;SDS011;4334;49.982;8.398;2023-02-11T06:31:10;44.57;;;24.30;;
8592;SDS011;4334;49.982;8.398;2023-02-11T06:33:37;42.63;;;23.53;;
8592;SDS011;4334;49.982;8.398;2023-02-11T06:36:08;51.63;;;23.73;;
8592;SDS011;4334;49.982;8.398;2023-02-11T06:38:37;42.43;;;23.27;;
8592;SDS011;4334;49.982;8.398;2023-02-11T06:41:07;45.37;;;23.87;;
8592;SDS011;4334;49.982;8.398;2023-02-11T06:43:35;43.70;;;23.80;;
8592;SDS011;4334;49.982;8.398;2023-02-11T06:46:01;44.67;;;23.30;;
8592;SDS011;4334;49.982;8.398;2023-02-11T06:48:28;44.80;;;22.70;;
8592;SDS011;4334;49.982;8.398;2023-02-11T06:50:55;42.00;;;23.07;;
8592;SDS011;4334;49.982;8.398;2023-02-11T06:53:22;44.63;;;23.10;;
8592;SDS011;4334;49.982;8.398;2023-02-11T06:55:49;47.20;;;24.13;;
8592;SDS011;4334;49.982;8.398;2023-02-11T06:58:17;46.73;;;24.60;;
8592;SDS011;4334;49.982;8.398;2023-02-11T07:00:44;45.17;;;23.37;;
8592;SDS011;4334;49.982;8.398;2023-02-11T07:03:11;41.27;;;23.07;;
8592;SDS011;4334;49.982;8.398;2023-02-11T07:05:40;41.30;;;23.37;;
8592;SDS011;4334;49.982;8.398;2023-02-11T07:08:07;47.67;;;24.20;;
8592;SDS011;4334;49.982;8.398;2023-02-11T07:10:34;41.87;;;22.67;;
8592;SDS011;4334;49.982;8.398;2023-02-11T07:13:01;40.87;;;21.97;;
8592;SDS011;4334;49.982;8.398;2023-02-11T07:15:29;40.27;;;22.07;;
8592;SDS011;4334;49.982;8.398;2023-02-11T07:17:56;40.87;;;23.17;;
8592;SDS011;4334;49.982;8.398;2023-02-11T07:20:23;45.77;;;23.57;;
8592;SDS011;4334;49.982;8.398;2023-02-11T07:22:51;46.60;;;24.53;;
8592;SDS011;4334;49.982;8.398;2023-02-11T07:25:17;48.27;;;25.20;;
8592;SDS011;4334;49.982;8.398;2023-02-11T07:27:44;45.67;;;24.20;;
8592;SDS011;4334;49.982;8.398;2023-02-11T07:30:11;46.87;;;24.33;;
8592;SDS011;4334;49.982;8.398;2023-02-11T07:32:40;41.23;;;23.33;;
8592;SDS011;4334;49.982;8.398;2023-02-11T07:35:07;43.53;;;23.00;;
8592;SDS011;4334;49.982;8.398;2023-02-11T07:37:34;47.30;;;23.17;;
8592;SDS011;4334;49.982;8.398;2023-02-11T07:40:02;40.73;;;23.07;;
8592;SDS011;4334;49.982;8.398;2023-02-11T07:42:29;40.57;;;22.87;;
8592;SDS011;4334;49.982;8.398;2023-02-11T07:44:56;37.13;;;22.40;;
8592;SDS011;4334;49.982;8.398;2023-02-11T07:47:22;40.57;;;22.30;;
8592;SDS011;4334;49.982;8.398;2023-02-11T07:49:51;35.83;;;21.67;;
8592;SDS011;4334;49.982;8.398;2023-02-11T07:52:17;42.83;;;22.67;;
8592;SDS011;4334;49.982;8.398;2023-02-11T07:54:44;37.80;;;21.43;;
8592;SDS011;4334;49.982;8.398;2023-02-11T08:08:32;33.13;;;17.77;;
8592;SDS011;4334;49.982;8.398;2023-02-11T08:11:04;34.60;;;18.23;;
8592;SDS011;4334;49.982;8.398;2023-02-11T08:13:31;32.00;;;18.57;;
8592;SDS011;4334;49.982;8.398;2023-02-11T08:15:58;30.47;;;18.47;;
8592;SDS011;4334;49.982;8.398;2023-02-11T08:18:25;29.93;;;17.47;;
8592;SDS011;4334;49.982;8.398;2023-02-11T08:20:51;31.23;;;18.77;;
8592;SDS011;4334;49.982;8.398;2023-02-11T08:23:18;32.37;;;18.13;;
8592;SDS011;4334;49.982;8.398;2023-02-11T08:25:46;30.37;;;18.43;;
8592;SDS011;4334;49.982;8.398;2023-02-11T08:28:13;37.30;;;20.07;;
8592;SDS011;4334;49.982;8.398;2023-02-11T08:30:40;30.53;;;18.67;;
8592;SDS011;4334;49.982;8.398;2023-02-11T08:33:06;32.67;;;18.97;;
8592;SDS011;4334;49.982;8.398;2023-02-11T08:35:34;31.27;;;19.33;;
8592;SDS011;4334;49.982;8.398;2023-02-11T08:38:01;33.67;;;19.47;;
8592;SDS011;4334;49.982;8.398;2023-02-11T08:40:28;30.20;;;18.40;;
8592;SDS011;4334;49.982;8.398;2023-02-11T08:42:56;32.50;;;19.17;;
8592;SDS011;4334;49.982;8.398;2023-02-11T08:45:22;32.60;;;19.23;;
8592;SDS011;4334;49.982;8.398;2023-02-11T08:47:49;31.00;;;18.60;;
8592;SDS011;4334;49.982;8.398;2023-02-11T08:50:16;29.97;;;18.63;;
8592;SDS011;4334;49.982;8.398;2023-02-11T08:52:42;30.73;;;18.97;;
8592;SDS011;4334;49.982;8.398;2023-02-11T08:55:09;35.53;;;20.00;;
8592;SDS011;4334;49.982;8.398;2023-02-11T08:57:36;36.13;;;20.03;;
8592;SDS011;4334;49.982;8.398;2023-02-11T09:00:05;35.63;;;20.67;;
8592;SDS011;4334;49.982;8.398;2023-02-11T09:02:35;33.57;;;19.93;;
8592;SDS011;4334;49.982;8.398;2023-02-11T09:05:01;31.53;;;19.63;;
8592;SDS011;4334;49.982;8.398;2023-02-11T09:07:28;37.33;;;20.33;;
8592;SDS011;4334;49.982;8.398;2023-02-11T09:09:55;33.30;;;19.47;;
8592;SDS011;4334;49.982;8.398;2023-02-11T09:12:22;32.50;;;19.10;;
8592;SDS011;4334;49.982;8.398;2023-02-11T09:14:48;28.87;;;18.90;;
8592;SDS011;4334;49.982;8.398;2023-02-11T09:17:16;30.97;;;18.50;;
8592;SDS011;4334;49.982;8.398;2023-02-11T09:19:43;32.43;;;20.10;;
8592;SDS011;4334;49.982;8.398;2023-02-11T09:22:10;31.73;;;19.20;;
8592;SDS011;4334;49.982;8.398;2023-02-11T09:24:37;30.93;;;19.07;;
8592;SDS011;4334;49.982;8.398;2023-02-11T09:27:04;33.63;;;19.63;;
8592;SDS011;4334;49.982;8.398;2023-02-11T09:29:31;33.23;;;19.83;;
8592;SDS011;4334;49.982;8.398;2023-02-11T09:31:57;30.67;;;18.80;;
8592;SDS011;4334;49.982;8.398;2023-02-11T09:34:26;31.03;;;19.40;;
8592;SDS011;4334;49.982;8.398;2023-02-11T09:36:52;30.83;;;19.93;;
8592;SDS011;4334;49.982;8.398;2023-02-11T09:39:19;29.67;;;19.60;;
8592;SDS011;4334;49.982;8.398;2023-02-11T09:44:45;30.23;;;18.00;;
8592;SDS011;4334;49.982;8.398;2023-02-11T09:47:18;29.50;;;18.13;;
8592;SDS011;4334;49.982;8.398;2023-02-11T09:49:52;32.27;;;19.00;;
8592;SDS011;4334;49.982;8.398;2023-02-11T09:52:29;30.57;;;18.97;;
8592;SDS011;4334;49.982;8.398;2023-02-11T09:54:59;31.50;;;18.57;;
8592;SDS011;4334;49.982;8.398;2023-02-11T09:57:33;33.47;;;19.13;;
8592;SDS011;4334;49.982;8.398;2023-02-11T10:00:06;32.23;;;19.30;;
8592;SDS011;4334;49.982;8.398;2023-02-11T10:02:46;30.90;;;18.50;;
8592;SDS011;4334;49.982;8.398;2023-02-11T10:05:30;34.77;;;20.27;;
8592;SDS011;4334;49.982;8.398;2023-02-11T10:08:10;32.50;;;19.57;;
8592;SDS011;4334;49.982;8.398;2023-02-11T10:10:46;29.93;;;19.33;;
8592;SDS011;4334;49.982;8.398;2023-02-11T10:13:23;35.70;;;20.27;;
8592;SDS011;4334;49.982;8.398;2023-02-11T10:16:00;28.83;;;18.80;;
8592;SDS011;4334;49.982;8.398;2023-02-11T10:18:37;29.77;;;18.87;;
8592;SDS011;4334;49.982;8.398;2023-02-11T10:21:14;28.93;;;18.63;;
8592;SDS011;4334;49.982;8.398;2023-02-11T10:23:50;30.07;;;18.87;;
8592;SDS011;4334;49.982;8.398;2023-02-11T10:26:19;29.87;;;17.87;;
8592;SDS011;4334;49.982;8.398;2023-02-11T10:28:48;29.73;;;19.30;;
8592;SDS011;4334;49.982;8.398;2023-02-11T10:31:18;29.00;;;17.97;;
8592;SDS011;4334;49.982;8.398;2023-02-11T10:33:49;29.77;;;18.13;;
8592;SDS011;4334;49.982;8.398;2023-02-11T10:36:24;26.70;;;18.10;;
8592;SDS011;4334;49.982;8.398;2023-02-11T10:38:54;27.97;;;18.07;;
8592;SDS011;4334;49.982;8.398;2023-02-11T10:41:23;28.43;;;18.47;;
8592;SDS011;4334;49.982;8.398;2023-02-11T10:43:57;28.23;;;17.93;;
8592;SDS011;4334;49.982;8.398;2023-02-11T10:46:31;26.50;;;16.93;;
8592;SDS011;4334;49.982;8.398;2023-02-11T10:48:59;24.13;;;16.07;;
8592;SDS011;4334;49.982;8.398;2023-02-11T10:51:29;25.87;;;16.10;;
8592;SDS011;4334;49.982;8.398;2023-02-11T10:54:09;25.83;;;16.73;;
8592;SDS011;4334;49.982;8.398;2023-02-11T10:56:39;26.20;;;15.77;;
8592;SDS011;4334;49.982;8.398;2023-02-11T10:59:13;24.80;;;15.30;;
8592;SDS011;4334;49.982;8.398;2023-02-11T11:01:45;29.30;;;16.30;;
8592;SDS011;4334;49.982;8.398;2023-02-11T11:07:17;27.23;;;16.33;;
8592;SDS011;4334;49.982;8.398;2023-02-11T11:09:46;27.37;;;16.57;;
8592;SDS011;4334;49.982;8.398;2023-02-11T11:12:32;25.93;;;16.03;;
8592;SDS011;4334;49.982;8.398;2023-02-11T11:15:13;26.73;;;16.20;;
8592;SDS011;4334;49.982;8.398;2023-02-11T11:17:46;26.10;;;15.80;;
8592;SDS011;4334;49.982;8.398;2023-02-11T11:20:23;23.67;;;15.93;;
8592;SDS011;4334;49.982;8.398;2023-02-11T11:23:08;30.77;;;16.20;;
8592;SDS011;4334;49.982;8.398;2023-02-11T11:25:41;23.47;;;16.03;;
8592;SDS011;4334;49.982;8.398;2023-02-11T11:28:17;30.20;;;14.87;;
8592;SDS011;4334;49.982;8.398;2023-02-11T11:30:47;23.23;;;14.63;;
8592;SDS011;4334;49.982;8.398;2023-02-11T11:33:16;24.37;;;14.87;;
8592;SDS011;4334;49.982;8.398;2023-02-11T11:35:53;23.53;;;15.43;;
8592;SDS011;4334;49.982;8.398;2023-02-11T11:38:24;26.23;;;14.57;;
8592;SDS011;4334;49.982;8.398;2023-02-11T11:43:55;21.67;;;14.07;;
8592;SDS011;4334;49.982;8.398;2023-02-11T11:46:26;25.10;;;14.80;;
8592;SDS011;4334;49.982;8.398;2023-02-11T11:48:57;25.40;;;15.23;;
8592;SDS011;4334;49.982;8.398;2023-02-11T11:51:41;26.63;;;14.83;;
8592;SDS011;4334;49.982;8.398;2023-02-11T11:54:16;21.47;;;13.43;;
8592;SDS011;4334;49.982;8.398;2023-02-11T11:56:46;23.23;;;14.17;;
8592;SDS011;4334;49.982;8.398;2023-02-11T11:59:18;21.87;;;13.77;;
8592;SDS011;4334;49.982;8.398;2023-02-11T12:01:49;22.80;;;13.93;;
8592;SDS011;4334;49.982;8.398;2023-02-11T12:04:39;22.67;;;14.13;;
8592;SDS011;4334;49.982;8.398;2023-02-11T12:07:17;20.37;;;14.13;;
8592;SDS011;4334;49.982;8.398;2023-02-11T12:10:03;19.73;;;13.97;;
8592;SDS011;4334;49.982;8.398;2023-02-11T12:12:47;20.93;;;13.87;;
8592;SDS011;4334;49.982;8.398;2023-02-11T12:15:26;26.10;;;14.27;;
8592;SDS011;4334;49.982;8.398;2023-02-11T12:18:07;22.27;;;15.07;;
8592;SDS011;4334;49.982;8.398;2023-02-11T12:20:50;23.70;;;14.27;;
8592;SDS011;4334;49.982;8.398;2023-02-11T12:23:30;19.93;;;13.60;;
8592;SDS011;4334;49.982;8.398;2023-02-11T12:26:06;21.53;;;14.30;;
8592;SDS011;4334;49.982;8.398;2023-02-11T12:28:40;22.80;;;13.30;;
8592;SDS011;4334;49.982;8.398;2023-02-11T12:31:22;28.60;;;16.60;;
8592;SDS011;4334;49.982;8.398;2023-02-11T12:34:02;27.90;;;17.10;;
8592;SDS011;4334;49.982;8.398;2023-02-11T12:36:52;24.57;;;14.50;;
8592;SDS011;4334;49.982;8.398;2023-02-11T12:39:36;20.93;;;13.00;;
8592;SDS011;4334;49.982;8.398;2023-02-11T12:42:16;22.53;;;14.10;;
8592;SDS011;4334;49.982;8.398;2023-02-11T12:45:27;21.63;;;13.57;;
8592;SDS011;4334;49.982;8.398;2023-02-11T12:51:00;19.90;;;12.80;;
8592;SDS011;4334;49.982;8.398;2023-02-11T12:53:39;20.50;;;13.83;;
8592;SDS011;4334;49.982;8.398;2023-02-11T12:56:14;21.77;;;13.27;;
8592;SDS011;4334;49.982;8.398;2023-02-11T12:58:47;23.60;;;13.10;;
8592;SDS011;4334;49.982;8.398;2023-02-11T13:01:20;21.43;;;13.60;;
8592;SDS011;4334;49.982;8.398;2023-02-11T13:03:50;21.83;;;12.97;;
8592;SDS011;4334;49.982;8.398;2023-02-11T13:06:21;20.33;;;12.77;;
8592;SDS011;4334;49.982;8.398;2023-02-11T13:08:52;22.43;;;12.97;;
8592;SDS011;4334;49.982;8.398;2023-02-11T13:11:25;22.27;;;13.93;;
8592;SDS011;4334;49.982;8.398;2023-02-11T13:13:56;21.60;;;13.73;;
8592;SDS011;4334;49.982;8.398;2023-02-11T13:16:28;20.17;;;13.27;;
8592;SDS011;4334;49.982;8.398;2023-02-11T13:19:00;20.03;;;12.50;;
8592;SDS011;4334;49.982;8.398;2023-02-11T13:21:41;20.47;;;12.23;;
8592;SDS011;4334;49.982;8.398;2023-02-11T13:24:25;23.77;;;11.73;;
8592;SDS011;4334;49.982;8.398;2023-02-11T13:27:00;20.83;;;11.93;;
8592;SDS011;4334;49.982;8.398;2023-02-11T13:29:37;17.97;;;11.53;;
8592;SDS011;4334;49.982;8.398;2023-02-11T13:32:22;18.47;;;11.70;;
8592;SDS011;4334;49.982;8.398;2023-02-11T13:34:53;16.77;;;11.27;;
8592;SDS011;4334;49.982;8.398;2023-02-11T13:37:21;18.53;;;11.60;;
8592;SDS011;4334;49.982;8.398;2023-02-11T13:39:54;18.20;;;12.63;;
8592;SDS011;4334;49.982;8.398;2023-02-11T13:42:22;15.37;;;10.67;;
8592;SDS011;4334;49.982;8.398;2023-02-11T13:44:51;18.63;;;11.00;;
8592;SDS011;4334;49.982;8.398;2023-02-11T13:47:23;15.47;;;10.30;;
8592;SDS011;4334;49.982;8.398;2023-02-11T13:49:52;16.37;;;9.83;;
8592;SDS011;4334;49.982;8.398;2023-02-11T13:52:21;21.10;;;10.00;;
8592;SDS011;4334;49.982;8.398;2023-02-11T13:54:51;13.70;;;9.70;;
8592;SDS011;4334;49.982;8.398;2023-02-11T13:57:26;19.20;;;10.60;;
8592;SDS011;4334;49.982;8.398;2023-02-11T14:00:09;17.90;;;10.37;;
8592;SDS011;4334;49.982;8.398;2023-02-11T14:03:26;17.47;;;10.40;;
8592;SDS011;4334;49.982;8.398;2023-02-11T14:06:16;16.90;;;9.93;;
8592;SDS011;4334;49.982;8.398;2023-02-11T14:14:56;15.50;;;9.47;;
8592;SDS011;4334;49.982;8.398;2023-02-11T14:17:43;17.43;;;9.53;;
8592;SDS011;4334;49.982;8.398;2023-02-11T14:23:03;18.20;;;9.07;;
8592;SDS011;4334;49.982;8.398;2023-02-11T14:25:31;18.97;;;8.73;;
8592;SDS011;4334;49.982;8.398;2023-02-11T14:28:00;17.43;;;8.63;;
8592;SDS011;4334;49.982;8.398;2023-02-11T14:30:35;12.43;;;7.80;;
8592;SDS011;4334;49.982;8.398;2023-02-11T14:36:08;18.13;;;8.17;;
8592;SDS011;4334;49.982;8.398;2023-02-11T14:38:48;12.40;;;9.17;;
8592;SDS011;4334;49.982;8.398;2023-02-11T14:41:24;14.60;;;8.73;;
8592;SDS011;4334;49.982;8.398;2023-02-11T14:43:52;12.43;;;8.33;;
8592;SDS011;4334;49.982;8.398;2023-02-11T14:46:22;14.23;;;8.53;;
8592;SDS011;4334;49.982;8.398;2023-02-11T14:48:53;13.57;;;8.90;;
8592;SDS011;4334;49.982;8.398;2023-02-11T14:51:24;17.03;;;8.80;;
8592;SDS011;4334;49.982;8.398;2023-02-11T14:53:53;13.33;;;8.80;;
8592;SDS011;4334;49.982;8.398;2023-02-11T14:56:25;13.97;;;8.70;;
8592;SDS011;4334;49.982;8.398;2023-02-11T14:58:55;12.57;;;8.80;;
8592;SDS011;4334;49.982;8.398;2023-02-11T15:01:24;15.73;;;9.37;;
8592;SDS011;4334;49.982;8.398;2023-02-11T15:03:54;12.53;;;8.67;;
8592;SDS011;4334;49.982;8.398;2023-02-11T15:06:23;16.97;;;9.73;;
8592;SDS011;4334;49.982;8.398;2023-02-11T15:08:53;18.57;;;11.17;;
8592;SDS011;4334;49.982;8.398;2023-02-11T15:11:24;16.63;;;11.03;;
8592;SDS011;4334;49.982;8.398;2023-02-11T15:13:53;16.37;;;11.13;;
8592;SDS011;4334;49.982;8.398;2023-02-11T15:16:22;17.17;;;11.73;;
8592;SDS011;4334;49.982;8.398;2023-02-11T15:18:52;16.37;;;10.53;;
8592;SDS011;4334;49.982;8.398;2023-02-11T15:21:22;15.90;;;10.63;;
8592;SDS011;4334;49.982;8.398;2023-02-11T15:23:55;13.53;;;9.07;;
8592;SDS011;4334;49.982;8.398;2023-02-11T15:26:24;14.20;;;9.87;;
8592;SDS011;4334;49.982;8.398;2023-02-11T15:28:50;13.03;;;9.53;;
8592;SDS011;4334;49.982;8.398;2023-02-11T15:31:18;16.83;;;12.23;;
8592;SDS011;4334;49.982;8.398;2023-02-11T15:33:47;16.40;;;10.87;;
8592;SDS011;4334;49.982;8.398;2023-02-11T15:36:16;18.50;;;12.87;;
8592;SDS011;4334;49.982;8.398;2023-02-11T15:38:44;18.63;;;11.53;;
8592;SDS011;4334;49.982;8.398;2023-02-11T15:44:00;16.60;;;9.53;;
8592;SDS011;4334;49.982;8.398;2023-02-11T15:46:29;14.97;;;10.03;;
8592;SDS011;4334;49.982;8.398;2023-02-11T15:49:01;14.17;;;9.83;;
8592;SDS011;4334;49.982;8.398;2023-02-11T15:51:30;15.63;;;10.47;;
8592;SDS011;4334;49.982;8.398;2023-02-11T15:54:00;15.20;;;10.23;;
8592;SDS011;4334;49.982;8.398;2023-02-11T15:56:29;16.40;;;11.13;;
8592;SDS011;4334;49.982;8.398;2023-02-11T15:59:07;16.93;;;11.30;;